createdAt,value
2018-03-26T00:01:16.836Z,9.00
2018-03-26T00:06:20.170Z,9.77
2018-03-26T00:11:23.393Z,8.73
2018-03-26T00:16:27.019Z,9.63
2018-03-26T00:21:30.247Z,8.97
2018-03-26T00:26:33.460Z,8.63
2018-03-26T00:31:36.700Z,9.63
2018-03-26T00:36:39.934Z,9.50
2018-03-26T00:41:43.600Z,9.53
2018-03-26T00:46:50.024Z,10.10
2018-03-26T00:51:53.406Z,9.67
2018-03-26T00:56:56.655Z,9.37
2018-03-26T01:01:59.912Z,9.20
2018-03-26T01:07:03.145Z,9.07
2018-03-26T01:12:06.852Z,9.57
2018-03-26T01:17:10.160Z,9.80
2018-03-26T01:22:13.367Z,9.67
2018-03-26T01:27:16.779Z,9.73
2018-03-26T01:32:20.013Z,9.50
2018-03-26T01:37:23.390Z,10.37
2018-03-26T01:42:26.608Z,9.30
2018-03-26T01:47:30.212Z,10.10
2018-03-26T01:52:33.434Z,9.13
2018-03-26T01:57:37.049Z,10.47
2018-03-26T02:07:50.507Z,8.67
2018-03-26T02:12:54.188Z,9.87
2018-03-26T02:17:57.428Z,8.70
2018-03-26T02:23:00.637Z,9.10
2018-03-26T02:28:03.863Z,9.00
2018-03-26T02:33:07.494Z,9.93
2018-03-26T02:38:10.820Z,10.23
2018-03-26T02:43:14.084Z,9.97
2018-03-26T02:48:17.719Z,11.20
2018-03-26T02:53:21.093Z,10.57
2018-03-26T02:58:24.338Z,11.40
2018-03-26T03:03:27.683Z,11.03
2018-03-26T03:08:31.019Z,11.87
2018-03-26T03:13:34.268Z,11.40
2018-03-26T03:18:37.500Z,11.57
2018-03-26T03:23:40.836Z,11.37
2018-03-26T03:28:44.066Z,11.43
2018-03-26T03:33:47.329Z,11.33
2018-03-26T03:38:50.557Z,12.00
2018-03-26T03:43:54.179Z,12.27
2018-03-26T03:48:57.809Z,11.17
2018-03-26T03:54:01.106Z,11.77
2018-03-26T03:59:04.720Z,12.13
2018-03-26T04:04:08.395Z,12.43
2018-03-26T04:09:11.635Z,11.83
2018-03-26T04:14:15.352Z,12.23
2018-03-26T04:19:18.968Z,11.00
2018-03-26T04:24:22.180Z,11.67
2018-03-26T04:29:26.161Z,11.00
2018-03-26T04:34:29.389Z,12.83
2018-03-26T04:39:33.332Z,12.27
2018-03-26T04:44:37.016Z,11.87
2018-03-26T04:49:40.241Z,11.30
2018-03-26T04:54:43.531Z,11.23
2018-03-26T04:59:46.808Z,10.23
2018-03-26T05:04:50.176Z,11.60
2018-03-26T05:09:54.802Z,9.73
2018-03-26T05:14:59.034Z,11.93
2018-03-26T05:20:02.652Z,15.10
2018-03-26T05:25:06.271Z,11.43
2018-03-26T05:30:09.873Z,11.87
2018-03-26T05:35:13.081Z,11.63
2018-03-26T05:40:16.329Z,11.53
2018-03-26T05:45:19.591Z,11.60
2018-03-26T05:50:22.828Z,14.90
2018-03-26T05:55:26.058Z,14.30
2018-03-26T06:00:29.280Z,13.30
2018-03-26T06:05:32.502Z,15.83
2018-03-26T06:10:35.758Z,12.80
2018-03-26T06:15:39.027Z,12.17
2018-03-26T06:20:42.346Z,12.77
2018-03-26T06:25:45.993Z,12.77
2018-03-26T06:30:49.214Z,11.97
2018-03-26T06:35:52.773Z,10.60
2018-03-26T06:40:56.404Z,12.80
2018-03-26T06:46:00.005Z,11.83
2018-03-26T06:51:03.691Z,11.40
2018-03-26T06:56:06.931Z,13.03
2018-03-26T07:01:10.652Z,13.17
2018-03-26T07:06:14.574Z,12.93
2018-03-26T07:11:18.298Z,13.67
2018-03-26T07:16:22.259Z,12.57
2018-03-26T07:21:25.518Z,12.97
2018-03-26T07:26:28.748Z,14.33
2018-03-26T07:31:31.972Z,14.13
2018-03-26T07:36:35.234Z,13.73
2018-03-26T07:41:39.083Z,13.70
2018-03-26T07:46:42.317Z,12.80
2018-03-26T07:51:45.572Z,12.93
2018-03-26T07:56:50.690Z,12.40
2018-03-26T08:01:53.921Z,13.03
2018-03-26T08:06:57.641Z,11.70
2018-03-26T08:12:01.368Z,11.50
2018-03-26T08:17:05.047Z,10.60
2018-03-26T08:22:08.272Z,10.83
2018-03-26T08:27:11.883Z,9.90
2018-03-26T08:32:15.124Z,10.60
2018-03-26T08:37:18.344Z,11.53
2018-03-26T08:42:21.783Z,12.67
2018-03-26T08:47:24.961Z,12.13
2018-03-26T08:52:28.217Z,12.20
2018-03-26T08:57:31.436Z,13.30
2018-03-26T09:02:35.122Z,11.50
2018-03-26T09:07:38.449Z,12.50
2018-03-26T09:12:41.688Z,11.77
2018-03-26T09:17:44.916Z,12.03
2018-03-26T09:22:48.150Z,10.70
2018-03-26T09:27:51.498Z,11.33
2018-03-26T09:32:55.125Z,12.47
2018-03-26T09:37:58.503Z,12.50
2018-03-26T09:43:01.754Z,11.40
2018-03-26T09:48:05.114Z,12.17
2018-03-26T09:53:08.355Z,12.13
2018-03-26T09:58:11.570Z,12.00
2018-03-26T10:03:14.836Z,12.53
2018-03-26T10:08:18.073Z,13.33
2018-03-26T10:13:21.283Z,13.07
2018-03-26T10:18:24.523Z,12.87
2018-03-26T10:23:27.738Z,13.07
2018-03-26T10:28:30.960Z,12.03
2018-03-26T10:33:34.682Z,13.10
2018-03-26T10:38:37.896Z,12.77
2018-03-26T10:43:41.508Z,13.63
2018-03-26T10:48:45.130Z,13.13
2018-03-26T10:53:48.741Z,12.97
2018-03-26T10:58:52.368Z,11.13
2018-03-26T11:03:55.595Z,13.33
2018-03-26T11:08:58.815Z,12.20
2018-03-26T11:14:02.059Z,12.37
2018-03-26T11:19:05.300Z,12.17
2018-03-26T11:24:08.520Z,13.30
2018-03-26T11:29:11.735Z,12.80
2018-03-26T11:34:15.002Z,12.73
2018-03-26T11:39:18.660Z,12.57
2018-03-26T11:44:21.898Z,12.77
2018-03-26T11:49:25.214Z,12.70
2018-03-26T11:54:28.426Z,12.90
2018-03-26T11:59:32.053Z,12.27
2018-03-26T12:04:35.275Z,12.50
2018-03-26T12:09:38.488Z,13.10
2018-03-26T12:14:41.728Z,11.70
2018-03-26T12:25:21.562Z,12.13
2018-03-26T12:30:25.241Z,13.17
2018-03-26T12:35:40.471Z,12.07
2018-03-26T12:40:51.550Z,12.60
2018-03-26T12:51:44.140Z,11.95
2018-03-26T12:56:47.803Z,14.43
2018-03-26T13:02:03.063Z,12.40
2018-03-26T13:07:06.287Z,12.80
2018-03-26T13:12:09.522Z,14.10
2018-03-26T13:17:12.754Z,14.30
2018-03-26T13:22:16.371Z,13.10
2018-03-26T13:27:20.205Z,12.20
2018-03-26T13:32:23.901Z,13.33
2018-03-26T13:37:27.153Z,13.50
2018-03-26T13:42:30.373Z,14.37
2018-03-26T13:47:33.626Z,11.77
2018-03-26T13:52:37.297Z,10.83
2018-03-26T13:57:40.643Z,10.83
2018-03-26T14:02:44.278Z,11.53
2018-03-26T14:07:48.218Z,10.73
2018-03-26T14:13:03.514Z,10.53
2018-03-26T14:18:06.808Z,11.23
2018-03-26T14:23:10.044Z,10.67
2018-03-26T14:28:13.391Z,10.37
2018-03-26T14:33:16.637Z,11.43
2018-03-26T14:38:20.013Z,12.03
2018-03-26T14:43:23.759Z,10.90
2018-03-26T14:48:27.050Z,11.10
2018-03-26T14:53:30.719Z,9.10
2018-03-26T14:58:34.069Z,9.53
2018-03-26T15:03:37.774Z,9.80
2018-03-26T15:08:40.991Z,10.77
2018-03-26T15:13:45.009Z,10.07
2018-03-26T15:18:48.823Z,9.77
2018-03-26T15:23:52.078Z,10.57
2018-03-26T15:28:55.315Z,9.80
2018-03-26T15:33:58.564Z,9.57
2018-03-26T15:39:01.990Z,11.77
2018-03-26T15:44:05.360Z,17.00
2018-03-26T15:49:08.873Z,15.27
2018-03-26T15:54:12.122Z,9.67
2018-03-26T15:59:15.467Z,11.07
2018-03-26T16:04:19.308Z,11.87
2018-03-26T16:09:22.917Z,11.93
2018-03-26T16:14:26.245Z,10.67
2018-03-26T16:19:29.947Z,10.37
2018-03-26T16:24:33.664Z,11.50
2018-03-26T16:29:37.060Z,10.57
2018-03-26T16:34:40.267Z,7.87
2018-03-26T16:39:43.595Z,6.47
2018-03-26T16:44:47.203Z,8.47
2018-03-26T16:49:50.409Z,8.67
2018-03-26T16:54:54.128Z,9.23
2018-03-26T16:59:57.842Z,8.57
2018-03-26T17:05:01.450Z,8.97
2018-03-26T17:10:04.765Z,9.67
2018-03-26T17:15:08.039Z,9.63
2018-03-26T17:20:11.489Z,8.90
2018-03-26T17:25:14.790Z,9.07
2018-03-26T17:30:18.097Z,10.23
2018-03-26T17:35:21.406Z,10.40
2018-03-26T17:40:25.121Z,9.40
2018-03-26T17:45:28.531Z,9.93
2018-03-26T17:50:31.764Z,11.47
2018-03-26T17:55:34.979Z,11.73
2018-03-26T18:00:38.328Z,15.07
2018-03-26T18:05:41.568Z,13.30
2018-03-26T18:10:45.202Z,14.00
2018-03-26T18:15:48.449Z,14.40
2018-03-26T18:20:52.343Z,12.57
2018-03-26T18:25:55.589Z,11.00
2018-03-26T18:30:58.920Z,10.07
2018-03-26T18:36:02.553Z,9.77
2018-03-26T18:41:05.823Z,9.23
2018-03-26T18:46:09.120Z,9.67
2018-03-26T18:51:12.380Z,11.80
2018-03-26T18:56:15.724Z,13.20
2018-03-26T19:01:18.946Z,15.03
2018-03-26T19:06:22.360Z,14.90
2018-03-26T19:11:25.642Z,13.83
2018-03-26T19:16:28.856Z,14.27
2018-03-26T19:21:32.177Z,13.93
2018-03-26T19:26:36.002Z,13.63
2018-03-26T19:31:39.611Z,14.63
2018-03-26T19:36:42.824Z,15.07
2018-03-26T19:41:47.428Z,12.77
2018-03-26T19:46:51.887Z,13.00
2018-03-26T19:51:55.525Z,14.70
2018-03-26T19:56:58.742Z,12.47
2018-03-26T20:02:02.109Z,12.30
2018-03-26T20:07:05.825Z,11.13
2018-03-26T20:12:09.089Z,13.37
2018-03-26T20:17:12.316Z,12.40
2018-03-26T20:22:15.669Z,14.03
2018-03-26T20:27:18.889Z,14.43
2018-03-26T20:32:22.114Z,14.87
2018-03-26T20:37:25.568Z,16.33
2018-03-26T20:42:29.282Z,16.07
2018-03-26T20:47:32.906Z,15.90
2018-03-26T20:52:36.127Z,16.43
2018-03-26T20:57:39.502Z,16.67
2018-03-26T21:02:42.808Z,15.40
2018-03-26T21:07:46.053Z,16.93
2018-03-26T21:12:49.340Z,16.17
2018-03-26T21:17:52.561Z,17.07
2018-03-26T21:22:55.842Z,16.07
2018-03-26T21:27:59.625Z,16.10
2018-03-26T21:33:03.982Z,16.23
2018-03-26T21:38:07.832Z,15.73
2018-03-26T21:43:12.874Z,16.60
2018-03-26T21:48:16.145Z,16.43
2018-03-26T21:53:19.870Z,15.80
2018-03-26T21:58:23.127Z,15.87
2018-03-26T22:03:26.362Z,17.30
2018-03-26T22:08:30.094Z,16.73
2018-03-26T22:13:33.354Z,17.73
2018-03-26T22:18:36.791Z,17.63
2018-03-26T22:23:40.018Z,16.70
2018-03-26T22:28:43.359Z,17.30
2018-03-26T22:33:46.580Z,16.17
2018-03-26T22:38:49.926Z,18.83
2018-03-26T22:43:53.539Z,16.90
2018-03-26T22:48:57.186Z,16.77
2018-03-26T22:54:00.403Z,17.10
2018-03-26T22:59:03.650Z,17.53
2018-03-26T23:04:06.966Z,17.57
2018-03-26T23:09:10.606Z,16.40
2018-03-26T23:14:13.987Z,18.40
2018-03-26T23:19:17.210Z,19.13
2018-03-26T23:24:20.824Z,16.83
2018-03-26T23:29:24.058Z,17.83
2018-03-26T23:34:27.285Z,15.53
2018-03-26T23:39:30.497Z,17.23
2018-03-26T23:44:33.730Z,15.77
2018-03-26T23:49:36.936Z,17.97
2018-03-26T23:54:40.160Z,17.90
2018-03-26T23:59:43.782Z,15.60
